Terminal Aerodrome Forecast
Issued by NWS Tulsa, OK

Home | Current Version | Previous Version | Text Only | Print | Product List | Glossary On
Versions: 1 2 3 4 5 6 7 8 9 10 11 12 13 14 15 16 17 18 19
000
FTUS44 KTSA 311500 AAB
TAFTUL
TAF AMD
KTUL 311533Z 3116/0112 09003KT 1SM -DZ BR BKN005 OVC022
      TEMPO 3116/3118 3SM -DZ BR BKN012
     FM311800 09005KT P6SM BKN015
     FM312200 11006KT P6SM BKN050
     FM010200 VRB03KT P6SM BKN250=

USA.gov is the U.S. government's official web portal to all federal, state and local government web resources and services.